Last 7 Days

Williams 2

Hourly Data | America/Los_Angeles
as of 4/23/24 7:22 PM PDT
Date & Time Temp (°F) RH (%) Dew Pt (°F) Wind Spd (mph) Wind Dir (°) Wind Gust (mph) Wind Gst Dir (°) Latest Rain (In) Daily Rain (In) Daily Min Temp (°F) Daily Max Temp (°F)
4/23/24 - 1900 60.5 58 45.6 4.3 WSW | 254 11.8 SSW | 197 0.00 0.00 50.3 66.2
4/23/24 - 1800 62.2 56 46.3 4.5 WSW | 239 14.8 WSW | 251 0.00 0.00 50.3 66.2
4/23/24 - 1700 64.2 51 45.8 7.5 WSW | 237 15.5 WSW | 252 0.00 0.00 50.3 66.2
4/23/24 - 1600 64.6 51 45.9 7.8 WSW | 237 15.5 SSW | 205 0.00 0.00 50.3 65.6
4/23/24 - 1500 64.5 50 45.4 8.0 WSW | 238 17.2 WSW | 258 0.00 0.00 50.3 65.6
4/23/24 - 1400 63.6 51 45.4 8.2 SW | 231 16.2 WSW | 244 0.00 0.00 50.3 64.7
4/23/24 - 1300 62.7 53 45.5 8.0 SW | 222 17.5 SW | 231 0.00 0.00 50.3 63.2
4/23/24 - 1200 61.2 57 45.8 6.9 WSW | 237 14.2 SSW | 206 0.00 0.00 50.3 63.0
4/23/24 - 1100 59.4 61 45.7 6.9 WSW | 239 14.8 W | 270 0.00 0.00 50.3 60.0
4/23/24 - 1000 58.5 62 45.6 6.6 WSW | 242 15.5 SSW | 200 0.00 0.00 50.3 59.2
4/23/24 - 0900 56.4 69 46.5 5.1 W | 260 13.8 SW | 226 0.00 0.00 50.3 57.0
4/23/24 - 0800 55.9 70 46.1 3.2 WNW | 299 11.1 WSW | 250 0.00 0.00 50.3 56.4
4/23/24 - 0700 55.2 72 46.2 3.0 WNW | 289 13.2 SW | 219 0.00 0.00 50.3 55.6
4/23/24 - 0600 54.3 75 46.7 1.2 W | 269 6.4 NNE | 33 0.00 0.00 50.3 55.0
4/23/24 - 0500 51.8 86 47.7 1.0 NNE | 23 4.8 NE | 40 0.00 0.00 50.3 54.3
4/23/24 - 0400 50.6 87 46.9 0.4 E | 79 3.4 WNW | 282 0.00 0.00 50.3 54.3
4/23/24 - 0300 51.6 83 46.4 0.6 ENE | 72 3.1 ENE | 59 0.00 0.00 50.8 54.3
4/23/24 - 0200 53.2 79 46.8 1.0 NW | 326 4.4 WNW | 283 0.00 0.00 52.6 54.3
4/23/24 - 0100 54.7 74 46.7 2.4 NNW | 339 9.1 NNW | 346 0.00 0.00 54.2 86.1
4/23/24 - 0000 55.5 76 48.2 2.4 NNW | 338 7.4 NW | 324 0.00 0.00 55.0 86.1
4/22/24 - 2300 56.6 78 49.8 2.0 NE | 40 6.1 NE | 54 0.00 0.00 55.4 86.1
4/22/24 - 2200 58.9 75 50.8 4.0 S | 187 11.1 SSW | 206 0.00 0.00 55.4 86.1
4/22/24 - 2100 60.8 74 52.6 3.8 ESE | 102 8.4 E | 79 0.00 0.00 55.4 86.1
4/22/24 - 2000 65.2 67 53.9 4.2 ESE | 106 7.8 ESE | 109 0.00 0.00 55.4 86.1
4/22/24 - 1900 74.1 52 55.5 3.1 ESE | 102 9.1 ENE | 71 0.00 0.00 55.4 86.1
4/22/24 - 1800 80.0 42 54.7 1.8 NE | 36 9.5 SE | 143 0.00 0.00 55.4 86.1
4/22/24 - 1700 82.6 35 51.8 4.3 NW | 312 9.1 N | 5 0.00 0.00 55.4 86.1
4/22/24 - 1600 83.8 27 46.6 7.6 WSW | 253 12.8 WSW | 250 0.00 0.00 55.4 86.1
4/22/24 - 1500 83.7 37 54.1 4.5 SSE | 168 11.8 S | 169 0.00 0.00 55.4 86.1
4/22/24 - 1400 82.2 40 55.6 3.9 SSE | 165 10.1 S | 169 0.00 0.00 55.4 83.2
4/22/24 - 1300 80.8 40 54.2 2.9 SSE | 164 8.1 SE | 124 0.00 0.00 55.4 82.2
4/22/24 - 1200 79.4 43 54.7 2.8 SSE | 158 9.1 SSW | 194 0.00 0.00 55.4 80.1
4/22/24 - 1100 77.6 47 55.5 2.0 SSE | 168 6.8 S | 174 0.00 0.00 55.4 78.7
4/22/24 - 1000 75.0 52 56.0 0.0 N | 0 0.0 SE | 145 0.00 0.00 55.4 76.7
4/22/24 - 0900 70.6 60 56.1 0.0 N | 0 0.0 WNW | 300 0.00 0.00 55.4 74.7
4/22/24 - 0800 57.8 87 53.8 0.0 SE | 133 1.7 SE | 140 0.00 0.00 55.4 64.4
4/22/24 - 0700 57.3 85 52.9 0.9 N | 3 6.1 N | 354 0.00 0.00 55.4 62.6
4/22/24 - 0600 60.4 79 54.0 6.0 NNW | 347 10.1 NNW | 339 0.00 0.00 59.7 62.6
4/22/24 - 0500 60.5 80 54.2 8.4 NNW | 346 12.5 NNW | 337 0.00 0.00 59.9 62.6
4/22/24 - 0400 60.9 79 54.4 8.0 NNW | 346 13.5 NNW | 336 0.00 0.00 59.9 62.6
4/22/24 - 0300 60.5 81 54.6 5.7 N | 351 11.5 NNW | 343 0.00 0.00 59.9 62.6
4/22/24 - 0200 61.9 77 54.6 4.9 N | 349 9.5 NNW | 347 0.00 0.00 60.1 62.6
4/22/24 - 0100 62.5 76 54.8 4.6 N | 0 8.4 N | 3 0.00 0.00 49.6 86.0
4/22/24 - 0000 63.7 74 55.2 5.1 N | 350 10.1 N | 1 0.00 0.00 49.6 86.0
4/21/24 - 2300 65.1 70 55.3 4.7 N | 354 8.4 NNE | 22 0.00 0.00 49.6 86.0
4/21/24 - 2200 66.8 66 55.3 4.1 N | 360 7.1 NW | 325 0.00 0.00 49.6 86.0
4/21/24 - 2100 67.4 70 57.2 3.1 N | 352 7.8 NNW | 330 0.00 0.00 49.6 86.0
4/21/24 - 2000 75.6 55 58.2 1.3 NNE | 15 4.8 NNW | 336 0.00 0.00 49.6 86.0
4/21/24 - 1900 82.6 40 56.1 2.8 SSE | 149 6.1 SSW | 196 0.00 0.00 49.6 86.0
4/21/24 - 1800 84.7 38 55.9 3.4 S | 174 6.8 SSE | 167 0.00 0.00 49.6 86.0
4/21/24 - 1700 84.4 39 57.0 3.9 SSE | 164 9.8 S | 184 0.00 0.00 49.6 86.0
4/21/24 - 1600 85.2 36 54.9 3.1 SSE | 166 8.4 SSE | 161 0.00 0.00 49.6 86.0
4/21/24 - 1500 83.9 35 53.3 2.1 SSE | 149 7.8 SSE | 161 0.00 0.00 49.6 85.4
4/21/24 - 1400 81.1 40 54.1 2.4 SE | 145 7.4 WSW | 242 0.00 0.00 49.6 82.7
4/21/24 - 1300 79.0 41 53.3 2.7 SSE | 161 7.4 S | 171 0.00 0.00 49.6 80.5
4/21/24 - 1200 77.0 43 52.6 2.0 SSE | 147 6.1 SE | 139 0.00 0.00 49.6 78.7
4/21/24 - 1100 73.2 45 50.6 2.4 SSE | 164 7.1 SSW | 197 0.00 0.00 49.6 75.6
4/21/24 - 1000 69.7 44 46.5 1.8 S | 178 4.8 ESE | 120 0.00 0.00 49.6 72.2
4/21/24 - 0900 66.0 49 46.6 0.2 SSW | 200 4.4 SW | 214 0.00 0.00 49.6 68.2
4/21/24 - 0800 53.3 74 45.1 0.1 N | 10 2.4 N | 2 0.00 0.00 49.6 63.1
4/21/24 - 0700 50.0 79 43.6 0.3 NE | 37 3.1 ENE | 63 0.00 0.00 49.6 63.1
4/21/24 - 0600 51.8 72 42.9 0.7 NE | 35 4.1 N | 7 0.00 0.00 50.6 63.1
4/21/24 - 0500 52.4 69 42.4 0.4 ENE | 66 4.4 ENE | 57 0.00 0.00 51.2 63.1
4/21/24 - 0400 55.4 55 39.7 0.3 ESE | 114 4.1 SE | 133 0.00 0.00 54.0 63.1
4/21/24 - 0300 56.6 53 39.4 0.5 SE | 126 4.8 ENE | 75 0.00 0.00 55.1 63.1
4/21/24 - 0200 61.8 37 35.0 2.2 W | 260 8.4 NW | 326 0.00 0.00 59.8 63.1
4/21/24 - 0100 61.5 40 36.7 2.4 WNW | 286 7.4 NW | 307 0.00 0.00 47.4 83.3
4/21/24 - 0000 63.2 37 36.3 5.1 NW | 316 9.5 NW | 315 0.00 0.00 47.4 83.3
4/20/24 - 2300 66.0 31 34.6 5.7 NNW | 327 11.1 W | 274 0.00 0.00 47.4 83.3
4/20/24 - 2200 58.8 68 48.1 0.6 NNW | 347 8.4 N | 352 0.00 0.00 47.4 83.3
4/20/24 - 2100 61.8 63 48.9 0.4 NNE | 22 4.1 NNE | 28 0.00 0.00 47.4 83.3
4/20/24 - 2000 71.4 47 50.0 1.6 E | 85 7.8 ESE | 103 0.00 0.00 47.4 83.3
4/20/24 - 1900 80.4 33 48.5 1.6 NNW | 332 6.4 NNW | 346 0.00 0.00 47.4 83.3
4/20/24 - 1800 81.8 31 47.9 1.2 WNW | 300 8.8 NW | 324 0.00 0.00 47.4 83.3
4/20/24 - 1700 82.1 30 47.9 3.0 NW | 308 8.8 NW | 326 0.00 0.00 47.4 83.3
4/20/24 - 1600 80.7 33 48.7 4.4 NNW | 330 13.2 NW | 313 0.00 0.00 47.4 83.1
4/20/24 - 1500 79.4 34 48.8 6.7 NNW | 338 12.8 NNW | 333 0.00 0.00 47.4 80.4
4/20/24 - 1400 78.6 36 49.2 6.5 NNW | 334 12.8 N | 349 0.00 0.00 47.4 79.1
4/20/24 - 1300 75.2 47 53.3 2.7 SE | 124 9.1 NNW | 331 0.00 0.00 47.4 78.4
4/20/24 - 1200 71.1 53 52.9 3.2 ESE | 111 7.8 SSE | 151 0.00 0.00 47.4 72.5
4/20/24 - 1100 68.5 55 51.8 2.7 SE | 135 6.8 SE | 134 0.00 0.00 47.4 69.6
4/20/24 - 1000 65.8 57 50.4 1.0 SSE | 152 5.4 ESE | 120 0.00 0.00 47.4 67.0
4/20/24 - 0900 59.0 71 49.3 0.0 S | 175 1.7 S | 170 0.00 0.00 47.4 64.1
4/20/24 - 0800 49.8 93 47.7 0.0 NE | 56 2.1 NE | 48 0.00 0.00 47.4 53.3
4/20/24 - 0700 47.9 93 45.9 0.3 N | 1 4.1 N | 3 0.00 0.00 47.4 53.0
4/20/24 - 0600 49.0 90 46.2 0.4 NNE | 29 2.7 W | 281 0.00 0.00 48.0 53.0
4/20/24 - 0500 49.5 91 47.0 0.7 E | 92 4.1 ENE | 57 0.00 0.00 48.3 53.0
4/20/24 - 0400 49.9 91 47.4 0.5 NE | 54 3.1 E | 94 0.00 0.00 48.5 53.0
4/20/24 - 0300 50.6 91 48.2 0.6 ENE | 65 4.8 N | 0 0.00 0.00 49.9 53.0
4/20/24 - 0200 52.0 90 49.2 0.1 NNE | 28 3.4 NNE | 27 0.00 0.00 51.0 53.0
4/20/24 - 0100 53.6 89 50.3 0.4 NE | 42 4.8 N | 5 0.00 0.00 49.1 79.4
4/20/24 - 0000 54.2 88 50.6 0.5 NNE | 20 4.4 NW | 326 0.00 0.00 49.1 79.4
4/19/24 - 2300 56.1 83 51.0 0.3 NE | 50 2.7 ENE | 61 0.00 0.00 49.1 79.4
4/19/24 - 2200 60.2 72 51.1 1.6 S | 171 5.1 WSW | 238 0.00 0.00 49.1 79.4
4/19/24 - 2100 60.5 75 52.5 0.7 ENE | 76 3.8 E | 90 0.00 0.00 49.1 79.4
4/19/24 - 2000 67.1 59 52.3 1.9 NNW | 347 9.5 NNW | 347 0.00 0.00 49.1 79.4
4/19/24 - 1900 73.5 49 53.1 4.5 NNW | 342 10.1 NNW | 340 0.00 0.00 49.1 79.4
4/19/24 - 1800 75.6 49 55.2 5.6 NNW | 340 11.1 N | 352 0.00 0.00 49.1 79.4
4/19/24 - 1700 77.2 47 55.3 7.1 NNW | 342 12.5 N | 353 0.00 0.00 49.1 79.4
4/19/24 - 1600 78.3 42 53.3 5.1 NNW | 336 10.1 NW | 326 0.00 0.00 49.1 79.4
4/19/24 - 1500 77.1 46 54.8 5.7 N | 351 11.8 N | 5 0.00 0.00 49.1 77.9
4/19/24 - 1400 74.6 54 56.6 3.1 E | 98 7.8 NE | 45 0.00 0.00 49.1 76.4
4/19/24 - 1300 71.7 58 56.1 3.5 ESE | 110 7.8 SE | 145 0.00 0.00 49.1 73.1
4/19/24 - 1200 69.1 61 54.9 3.6 ESE | 116 7.8 ESE | 121 0.00 0.00 49.1 70.8
4/19/24 - 1100 67.4 62 54.2 3.1 SE | 135 7.8 SSE | 150 0.00 0.00 49.1 68.8
4/19/24 - 1000 66.4 62 53.1 2.0 SE | 140 5.8 SE | 138 0.00 0.00 49.1 67.0
4/19/24 - 0900 62.7 67 51.5 0.0 N | 0 0.0 ENE | 68 0.00 0.00 49.1 66.1
4/19/24 - 0800 52.3 93 50.2 0.0 NE | 35 1.7 NE | 35 0.00 0.00 49.1 57.3
4/19/24 - 0700 49.4 94 47.7 0.2 ENE | 68 2.4 ENE | 63 0.00 0.00 49.1 56.9
4/19/24 - 0600 50.0 93 48.1 0.0 NNE | 32 2.1 NE | 48 0.00 0.00 49.4 56.9
4/19/24 - 0500 51.0 92 48.7 0.1 NE | 49 2.1 NE | 50 0.00 0.00 50.3 56.9
4/19/24 - 0400 52.3 90 49.6 0.0 NE | 48 1.4 ENE | 66 0.00 0.00 51.8 56.9
4/19/24 - 0300 53.7 88 50.3 0.0 ENE | 65 2.4 ENE | 61 0.00 0.00 52.6 56.9
4/19/24 - 0200 56.0 86 52.0 0.1 N | 5 2.1 WNW | 290 0.00 0.00 54.9 56.9
4/19/24 - 0100 57.9 82 52.4 0.0 N | 351 1.4 N | 351 0.00 0.00 51.3 81.8
4/19/24 - 0000 61.1 70 51.1 1.3 N | 6 4.8 NNW | 332 0.00 0.00 51.3 81.8
4/18/24 - 2300 60.5 76 52.7 0.8 WNW | 296 5.8 WNW | 294 0.00 0.00 51.3 81.8
4/18/24 - 2200 62.3 72 53.2 1.4 N | 11 4.4 NNW | 338 0.00 0.00 51.3 81.8
4/18/24 - 2100 66.2 64 53.6 4.1 NNW | 333 7.1 NW | 308 0.00 0.00 51.3 81.8
4/18/24 - 2000 70.4 54 52.7 4.1 N | 349 7.4 NNW | 331 0.00 0.00 51.3 81.8
4/18/24 - 1900 77.1 41 51.4 3.6 WNW | 294 6.8 SW | 216 0.00 0.00 51.3 81.8
4/18/24 - 1800 78.5 37 50.4 5.1 WSW | 252 10.5 W | 259 0.00 0.00 51.3 81.8
4/18/24 - 1700 79.9 37 51.3 5.8 SW | 220 11.8 SSW | 194 0.00 0.00 51.3 81.8
4/18/24 - 1600 80.6 34 49.3 4.0 S | 191 11.1 S | 190 0.00 0.00 51.3 81.8
4/18/24 - 1500 80.4 31 47.0 3.6 SSW | 203 9.8 S | 186 0.00 0.00 51.3 81.2
4/18/24 - 1400 79.0 33 47.5 2.6 S | 178 7.8 ESE | 118 0.00 0.00 51.3 80.0
4/18/24 - 1300 77.1 34 46.8 2.3 SSE | 164 6.4 SE | 129 0.00 0.00 51.3 78.6
4/18/24 - 1200 74.6 41 49.5 1.9 SSE | 153 6.4 SSW | 193 0.00 0.00 51.3 76.1
4/18/24 - 1100 71.8 49 51.6 3.0 S | 183 7.1 SSE | 162 0.00 0.00 51.3 73.3
4/18/24 - 1000 68.0 59 53.2 2.4 S | 183 6.4 SSW | 193 0.00 0.00 51.3 70.6
4/18/24 - 0900 65.0 65 53.2 0.0 N | 0 0.0 SE | 126 0.00 0.00 51.3 67.4
4/18/24 - 0800 54.4 88 50.9 1.2 N | 358 4.4 N | 2 0.00 0.00 51.3 60.4
4/18/24 - 0700 51.9 92 49.8 0.8 NNW | 342 4.8 NNW | 336 0.00 0.00 51.3 58.9
4/18/24 - 0600 53.2 92 50.8 3.6 N | 349 8.1 N | 8 0.00 0.00 52.5 58.9
4/18/24 - 0500 56.2 86 52.0 4.5 NNW | 342 9.8 NNW | 336 0.00 0.00 54.3 58.9
4/18/24 - 0400 57.1 84 52.3 6.6 NNW | 345 10.8 NNW | 345 0.00 0.00 56.5 58.9
4/18/24 - 0300 56.9 85 52.4 5.6 NNW | 347 10.8 N | 3 0.00 0.00 56.5 58.9
4/18/24 - 0200 57.6 84 52.8 3.9 NNW | 341 9.5 N | 353 0.00 0.00 56.7 58.9
4/18/24 - 0100 59.0 82 53.5 6.2 N | 355 12.8 NNW | 328 0.00 0.00 50.1 81.8
4/18/24 - 0000 60.0 81 54.0 4.8 N | 354 9.1 N | 2 0.00 0.00 50.1 81.8
4/17/24 - 2300 61.0 79 54.4 4.9 NNW | 347 9.1 N | 349 0.00 0.00 50.1 81.8
4/17/24 - 2200 62.3 75 54.2 4.8 N | 350 8.8 N | 350 0.00 0.00 50.1 81.8
4/17/24 - 2100 62.8 75 54.8 3.5 N | 349 7.1 NNW | 331 0.00 0.00 50.1 81.8
4/17/24 - 2000 70.9 58 55.0 0.5 NW | 314 4.4 N | 0 0.00 0.00 50.1 81.8
4/17/24 - 1900 78.8 38 51.4 2.4 SSW | 209 6.1 S | 180 0.00 0.00 50.1 81.8
4/17/24 - 1800 79.8 37 50.9 2.7 SSE | 166 14.2 SE | 133 0.00 0.00 50.1 81.8
4/17/24 - 1700 79.3 35 49.6 2.0 SSE | 168 6.4 SSE | 161 0.00 0.00 50.1 81.8
4/17/24 - 1600 78.3 39 51.0 3.3 S | 182 7.4 S | 187 0.00 0.00 50.1 79.1
4/17/24 - 1500 76.7 43 52.6 3.5 SSE | 161 8.1 S | 173 0.00 0.00 50.1 77.7
4/17/24 - 1400 75.3 49 54.7 4.2 SSW | 213 8.4 W | 265 0.00 0.00 50.1 75.8
4/17/24 - 1300 74.2 51 54.8 2.0 S | 179 6.8 S | 191 0.00 0.00 50.1 75.6
4/17/24 - 1200 72.4 54 54.9 1.8 S | 173 6.4 SSE | 150 0.00 0.00 50.1 73.4
4/17/24 - 1100 69.8 58 54.2 1.6 S | 183 5.4 S | 188 0.00 0.00 50.1 72.3
4/17/24 - 1000 67.2 64 54.5 0.7 S | 174 4.4 SSW | 195 0.00 0.00 50.1 68.1
4/17/24 - 0900 61.2 77 53.8 0.0 N | 0 0.0 E | 90 0.00 0.00 50.1 65.9
4/17/24 - 0800 53.1 92 51.0 0.1 NNW | 347 3.1 NNE | 24 0.00 0.00 50.1 58.3
4/17/24 - 0700 50.6 94 48.9 0.0 NW | 314 2.7 NW | 312 0.00 0.00 50.1 58.3
4/17/24 - 0600 51.6 91 49.1 0.0 NNW | 347 2.4 NNW | 346 0.00 0.00 50.5 58.3
4/17/24 - 0500 54.0 87 50.2 0.3 N | 359 3.8 NNE | 14 0.00 0.00 52.6 58.3
4/17/24 - 0400 54.4 88 51.0 1.9 NNW | 345 6.4 N | 0 0.00 0.00 52.9 58.3
4/17/24 - 0300 54.4 87 50.6 1.1 NNW | 338 4.8 N | 353 0.00 0.00 53.2 58.3
4/17/24 - 0200 57.5 79 51.1 3.7 NNW | 348 8.8 NNW | 336 0.00 0.00 56.2 58.3
4/17/24 - 0100 57.1 81 51.4 4.7 N | 350 10.1 N | 350 0.00 0.00 45.9 77.9
4/17/24 - 0000 57.9 79 51.5 4.2 N | 349 8.4 NNW | 346 0.00 0.00 45.9 77.9
4/16/24 - 2300 58.4 78 51.4 3.3 N | 0 7.4 N | 353 0.00 0.00 45.9 77.9
4/16/24 - 2200 60.3 73 51.7 4.5 NNW | 346 8.1 NNW | 341 0.00 0.00 45.9 77.9
4/16/24 - 2100 60.8 77 53.6 2.1 N | 349 5.8 NNW | 346 0.00 0.00 45.9 77.9
4/16/24 - 2000 68.8 63 55.3 0.2 W | 274 2.4 WNW | 303 0.00 0.00 45.9 77.9
Max 85.2 94 58.2 8.4 - 17.5 - 0.00 0.00 60.1 86.1
Avg 65.1 63 50.6 2.8 - 7.4 - 0.00 - - -
Min 47.9 27 34.6 0.0 - 0.0 - 0.00 0.00 45.9 53.0
Total - - - - - - - 0.00 - - -
Tip: Bookmark this page for easy future reference